createdAt,value
2019-04-16T00:02:54.194Z,3.62
2019-04-16T00:06:07.686Z,3.38
2019-04-16T00:09:34.465Z,3.18
2019-04-16T00:13:10.885Z,3.06
2019-04-16T00:16:19.157Z,2.97
2019-04-16T00:19:26.992Z,2.92
2019-04-16T00:22:40.276Z,2.86
2019-04-16T00:25:47.565Z,2.78
2019-04-16T00:28:54.913Z,2.80
2019-04-16T00:32:09.090Z,2.77
2019-04-16T00:35:16.401Z,2.73
2019-04-16T00:38:39.799Z,2.65
2019-04-16T00:41:36.530Z,2.62
2019-04-16T00:44:44.007Z,2.60
2019-04-16T00:47:52.115Z,2.54
2019-04-16T00:50:59.892Z,2.42
2019-04-16T00:54:10.354Z,2.30
2019-04-16T00:57:17.994Z,2.32
2019-04-16T01:00:27.661Z,2.35
2019-04-16T01:03:37.319Z,2.29
2019-04-16T01:06:44.791Z,2.56
2019-04-16T01:09:52.186Z,2.57
2019-04-16T01:12:59.386Z,2.05
2019-04-16T01:16:06.822Z,1.99
2019-04-16T01:19:14.460Z,1.79
2019-04-16T01:22:21.791Z,1.77
2019-04-16T01:25:29.096Z,1.78
2019-04-16T01:28:41.378Z,1.85
2019-04-16T01:32:10.310Z,1.94
2019-04-16T01:35:35.070Z,1.77
2019-04-16T01:39:13.647Z,1.72
2019-04-16T01:42:05.003Z,1.69
2019-04-16T01:45:12.422Z,1.64
2019-04-16T01:48:19.599Z,1.65
2019-04-16T01:51:26.981Z,1.55
2019-04-16T01:54:35.166Z,1.53
2019-04-16T01:57:42.511Z,1.50
2019-04-16T02:00:50.283Z,1.45
2019-04-16T02:03:57.582Z,1.27
2019-04-16T02:07:05.410Z,1.35
2019-04-16T02:10:12.989Z,1.33
2019-04-16T02:13:20.470Z,1.30
2019-04-16T02:16:27.882Z,1.20
2019-04-16T02:19:35.383Z,1.15
2019-04-16T02:22:45.055Z,0.95
2019-04-16T02:25:52.150Z,0.98
2019-04-16T02:28:59.937Z,1.02
2019-04-16T02:32:07.570Z,1.02
2019-04-16T02:35:15.078Z,1.08
2019-04-16T02:38:22.364Z,1.04
2019-04-16T02:41:29.519Z,0.95
2019-04-16T02:44:36.907Z,1.03
2019-04-16T02:47:44.597Z,1.01
2019-04-16T02:50:55.586Z,1.04
2019-04-16T02:54:34.688Z,1.04
2019-04-16T02:57:49.327Z,1.04
2019-04-16T03:01:11.108Z,0.99
2019-04-16T03:04:26.717Z,0.93
2019-04-16T03:07:32.746Z,1.07
2019-04-16T03:10:41.870Z,1.04
2019-04-16T03:13:52.858Z,1.02
2019-04-16T03:17:18.364Z,0.98
2019-04-16T03:20:25.856Z,1.01
2019-04-16T03:23:36.524Z,0.81
2019-04-16T03:26:44.318Z,0.72
2019-04-16T03:29:51.857Z,0.81
2019-04-16T03:32:59.428Z,0.75
2019-04-16T03:36:07.097Z,0.83
2019-04-16T03:39:14.387Z,1.03
2019-04-16T03:42:24.517Z,1.05
2019-04-16T03:45:31.117Z,1.16
2019-04-16T03:48:38.890Z,1.00
2019-04-16T03:51:46.967Z,0.84
2019-04-16T03:54:57.604Z,0.52
2019-04-16T03:58:06.073Z,0.48
2019-04-16T04:01:15.410Z,0.54
2019-04-16T04:04:28.979Z,0.39
2019-04-16T04:07:33.678Z,0.33
2019-04-16T04:10:41.693Z,0.13
2019-04-16T04:13:50.233Z,0.09
2019-04-16T04:17:05.201Z,0.22
2019-04-16T04:20:09.520Z,0.46
2019-04-16T04:23:17.359Z,0.53
2019-04-16T04:26:25.100Z,0.60
2019-04-16T04:29:35.707Z,0.61
2019-04-16T04:32:43.159Z,0.63
2019-04-16T04:35:51.978Z,0.53
2019-04-16T04:38:59.789Z,0.60
2019-04-16T04:42:06.967Z,0.57
2019-04-16T04:45:14.393Z,0.68
2019-04-16T04:48:24.119Z,0.72
2019-04-16T04:51:31.916Z,0.82
2019-04-16T04:54:39.794Z,1.08
2019-04-16T04:57:47.494Z,1.01
2019-04-16T05:00:55.245Z,1.08
2019-04-16T05:04:25.136Z,1.04
2019-04-16T05:07:59.491Z,1.13
2019-04-16T05:11:03.737Z,1.37
2019-04-16T05:14:11.556Z,2.14
2019-04-16T05:17:19.109Z,2.32
2019-04-16T05:20:29.653Z,2.58
2019-04-16T05:23:37.699Z,3.25
2019-04-16T05:26:45.309Z,3.66
2019-04-16T05:29:53.039Z,4.06
2019-04-16T05:33:04.937Z,4.28
2019-04-16T05:36:11.090Z,4.38
2019-04-16T05:39:19.552Z,4.86
2019-04-16T05:42:26.852Z,5.33
2019-04-16T05:45:34.538Z,5.89
2019-04-16T05:48:43.330Z,6.42
2019-04-16T05:51:52.030Z,6.63
2019-04-16T05:55:27.867Z,7.63
2019-04-16T05:58:35.347Z,8.41
2019-04-16T06:01:47.727Z,8.95
2019-04-16T06:04:55.971Z,9.59
2019-04-16T06:08:10.475Z,10.50
2019-04-16T06:11:28.074Z,11.85
2019-04-16T06:14:49.672Z,13.42
2019-04-16T06:18:12.915Z,13.89
2019-04-16T06:21:56.447Z,13.56
2019-04-16T06:25:20.412Z,13.57
2019-04-16T06:29:00.283Z,14.48
2019-04-16T06:32:17.903Z,15.54
2019-04-16T06:35:48.127Z,15.49
2019-04-16T06:39:08.522Z,15.71
2019-04-16T06:42:23.231Z,15.72
2019-04-16T06:45:41.727Z,16.37
2019-04-16T06:49:14.365Z,16.57
2019-04-16T06:52:49.920Z,16.79
2019-04-16T06:56:15.657Z,16.68
2019-04-16T06:59:46.668Z,17.63
2019-04-16T07:03:12.359Z,16.28
2019-04-16T07:06:35.424Z,16.71
2019-04-16T07:09:59.605Z,16.89
2019-04-16T07:13:10.179Z,17.65
2019-04-16T07:16:16.955Z,17.54
2019-04-16T07:19:24.473Z,18.54
2019-04-16T07:22:32.184Z,18.25
2019-04-16T07:25:43.128Z,18.81
2019-04-16T07:29:07.005Z,19.47
2019-04-16T07:32:40.522Z,20.03
2019-04-16T07:36:04.466Z,18.83
2019-04-16T07:39:37.233Z,19.54
2019-04-16T07:43:19.498Z,20.15
2019-04-16T07:46:53.843Z,20.54
2019-04-16T07:50:19.787Z,16.79
2019-04-16T07:53:51.518Z,14.34
2019-04-16T07:56:59.163Z,13.03
2019-04-16T08:00:09.713Z,13.54
2019-04-16T08:03:18.408Z,13.12
2019-04-16T08:06:25.949Z,15.63
2019-04-16T08:09:33.782Z,15.57
2019-04-16T08:12:46.210Z,14.63
2019-04-16T08:15:56.617Z,16.06
2019-04-16T08:19:03.803Z,15.06
2019-04-16T08:22:15.450Z,16.70
2019-04-16T08:25:26.233Z,17.66
2019-04-16T08:28:33.661Z,15.54
2019-04-16T08:31:44.847Z,15.08
2019-04-16T08:34:52.388Z,16.86
2019-04-16T08:37:59.621Z,17.41
2019-04-16T08:41:07.325Z,18.88
2019-04-16T08:44:15.109Z,17.62
2019-04-16T08:47:22.813Z,17.31
2019-04-16T08:50:30.498Z,14.81
2019-04-16T08:53:37.911Z,14.76
2019-04-16T08:56:45.820Z,14.03
2019-04-16T08:59:56.084Z,14.12
2019-04-16T09:03:03.675Z,15.39
2019-04-16T09:06:13.505Z,16.39
2019-04-16T09:09:41.518Z,15.55
2019-04-16T09:13:02.289Z,14.79
2019-04-16T09:15:59.220Z,15.39
2019-04-16T09:19:12.086Z,15.57
2019-04-16T09:22:19.271Z,14.67
2019-04-16T09:25:42.464Z,14.52
2019-04-16T09:29:09.668Z,15.61
2019-04-16T09:32:37.802Z,15.42
2019-04-16T09:36:00.175Z,15.09
2019-04-16T09:39:20.737Z,14.69
2019-04-16T09:42:28.328Z,14.68
2019-04-16T09:45:37.174Z,15.43
2019-04-16T09:48:45.400Z,16.28
2019-04-16T09:51:54.962Z,17.08
2019-04-16T09:55:02.604Z,16.99
2019-04-16T09:58:17.421Z,17.34
2019-04-16T10:01:29.028Z,17.90
2019-04-16T10:04:38.104Z,17.28
2019-04-16T10:07:45.323Z,17.50
2019-04-16T10:10:52.741Z,17.78
2019-04-16T10:14:00.403Z,18.23
2019-04-16T10:17:07.944Z,18.62
2019-04-16T10:20:15.429Z,17.01
2019-04-16T10:23:29.320Z,16.72
2019-04-16T10:26:36.647Z,16.48
2019-04-16T10:29:43.926Z,16.86
2019-04-16T10:32:51.420Z,17.37
2019-04-16T10:36:01.150Z,17.60
2019-04-16T10:39:27.402Z,17.33
2019-04-16T10:42:56.979Z,17.18
2019-04-16T10:46:34.414Z,16.98
2019-04-16T10:50:16.801Z,16.73
2019-04-16T10:53:33.759Z,16.97
2019-04-16T10:56:59.479Z,16.84
2019-04-16T11:00:26.143Z,17.37
2019-04-16T11:03:55.755Z,17.15
2019-04-16T11:07:09.358Z,15.94
2019-04-16T11:10:17.495Z,15.97
2019-04-16T11:13:40.215Z,16.71
2019-04-16T11:16:50.733Z,17.29
2019-04-16T11:20:00.045Z,16.76
2019-04-16T11:23:08.188Z,16.92
2019-04-16T11:26:15.730Z,17.31
2019-04-16T11:29:23.262Z,17.70
2019-04-16T11:32:30.545Z,17.22
2019-04-16T11:35:38.220Z,17.47
2019-04-16T11:38:45.499Z,17.59
2019-04-16T11:41:52.881Z,17.89
2019-04-16T11:45:00.295Z,17.93
2019-04-16T11:48:07.986Z,18.20
2019-04-16T11:51:15.380Z,18.48
2019-04-16T11:54:23.414Z,18.18
2019-04-16T11:57:33.250Z,17.86
2019-04-16T12:00:47.604Z,17.60
2019-04-16T12:03:59.236Z,18.34
2019-04-16T12:07:32.118Z,17.88
2019-04-16T12:10:58.488Z,17.79
2019-04-16T12:14:11.786Z,17.58
2019-04-16T12:17:47.319Z,17.66
2019-04-16T12:21:14.503Z,17.16
2019-04-16T12:24:49.468Z,17.11
2019-04-16T12:28:18.775Z,17.29
2019-04-16T12:31:51.524Z,17.77
2019-04-16T12:35:15.309Z,17.87
2019-04-16T12:38:26.316Z,17.93
2019-04-16T12:42:00.191Z,17.41
2019-04-16T12:45:27.110Z,17.89
2019-04-16T12:48:54.776Z,18.07
2019-04-16T12:52:22.449Z,17.84
2019-04-16T12:55:44.262Z,17.66
2019-04-16T12:58:59.431Z,18.19
2019-04-16T13:02:25.545Z,18.76
2019-04-16T13:05:38.620Z,19.22
2019-04-16T13:09:14.131Z,19.47
2019-04-16T13:12:28.343Z,19.57
2019-04-16T13:15:43.440Z,19.66
2019-04-16T13:19:09.597Z,19.88
2019-04-16T13:22:21.144Z,19.81
2019-04-16T13:25:37.182Z,19.59
2019-04-16T13:28:45.902Z,19.22
2019-04-16T13:31:54.161Z,18.72
2019-04-16T13:35:02.119Z,19.00
2019-04-16T13:38:10.341Z,18.22
2019-04-16T13:41:17.967Z,18.46
2019-04-16T13:44:28.960Z,18.37
2019-04-16T13:47:45.298Z,18.72
2019-04-16T13:50:56.902Z,18.82
2019-04-16T13:54:12.674Z,18.75
2019-04-16T13:57:21.248Z,18.15
2019-04-16T14:00:42.013Z,18.03
2019-04-16T14:03:49.849Z,18.06
2019-04-16T14:10:10.915Z,18.08
2019-04-16T14:13:18.532Z,18.36
2019-04-16T14:16:26.079Z,18.56
2019-04-16T14:19:34.812Z,18.53
2019-04-16T14:22:43.439Z,18.63
2019-04-16T14:25:51.274Z,18.33
2019-04-16T14:28:59.059Z,18.13
2019-04-16T14:32:07.010Z,18.18
2019-04-16T14:35:32.854Z,18.26
2019-04-16T14:38:44.619Z,18.28
2019-04-16T14:41:52.184Z,18.34
2019-04-16T14:45:08.662Z,18.17
2019-04-16T14:48:16.378Z,18.05
2019-04-16T14:51:24.134Z,18.08
2019-04-16T14:54:43.292Z,18.16
2019-04-16T14:58:22.798Z,17.99
2019-04-16T15:02:08.321Z,17.90
2019-04-16T15:05:25.527Z,17.78
2019-04-16T15:08:45.230Z,17.83
2019-04-16T15:12:11.274Z,17.85
2019-04-16T15:15:30.629Z,17.62
2019-04-16T15:19:00.688Z,17.66
2019-04-16T15:22:26.559Z,17.84
2019-04-16T15:25:51.704Z,17.94
2019-04-16T15:29:07.052Z,17.82
2019-04-16T15:32:40.185Z,17.84
2019-04-16T15:35:53.053Z,17.96
2019-04-16T15:39:20.355Z,18.02
2019-04-16T15:42:48.475Z,17.97
2019-04-16T15:46:26.443Z,17.89
2019-04-16T15:49:49.487Z,17.98
2019-04-16T15:53:03.806Z,18.01
2019-04-16T15:56:22.039Z,18.24
2019-04-16T15:59:36.537Z,18.42
2019-04-16T16:03:05.770Z,18.67
2019-04-16T16:06:16.885Z,18.74
2019-04-16T16:09:30.633Z,18.40
2019-04-16T16:12:42.716Z,18.44
2019-04-16T16:15:50.550Z,18.16
2019-04-16T16:18:58.237Z,17.81
2019-04-16T16:22:10.838Z,17.67
2019-04-16T16:25:15.794Z,17.50
2019-04-16T16:28:23.624Z,17.21
2019-04-16T16:31:35.432Z,16.90
2019-04-16T16:34:42.331Z,16.73
2019-04-16T16:37:52.415Z,16.66
2019-04-16T16:41:00.773Z,16.55
2019-04-16T16:44:09.002Z,16.48
2019-04-16T16:47:33.979Z,16.44
2019-04-16T16:50:43.999Z,16.40
2019-04-16T16:53:59.487Z,16.33
2019-04-16T16:57:33.657Z,16.28
2019-04-16T17:00:46.783Z,16.21
2019-04-16T17:04:10.534Z,16.29
2019-04-16T17:07:18.886Z,16.33
2019-04-16T17:10:27.217Z,16.31
2019-04-16T17:13:35.362Z,16.21
2019-04-16T17:16:44.994Z,16.12
2019-04-16T17:19:52.663Z,15.89
2019-04-16T17:23:00.340Z,15.66
2019-04-16T17:26:08.146Z,15.44
2019-04-16T17:29:15.714Z,15.30
2019-04-16T17:32:23.334Z,15.27
2019-04-16T17:35:30.800Z,15.08
2019-04-16T17:38:38.832Z,14.99
2019-04-16T17:41:59.694Z,14.91
2019-04-16T17:45:24.424Z,14.70
2019-04-16T17:48:57.192Z,14.55
2019-04-16T17:52:09.310Z,14.47
2019-04-16T17:55:25.260Z,14.38
2019-04-16T17:58:51.787Z,14.13
2019-04-16T18:02:34.046Z,13.91
2019-04-16T18:05:59.208Z,13.71
2019-04-16T18:09:27.245Z,13.36
2019-04-16T18:12:57.290Z,13.34
2019-04-16T18:16:09.672Z,13.28
2019-04-16T18:19:45.970Z,13.15
2019-04-16T18:23:06.241Z,13.02
2019-04-16T18:26:33.207Z,12.87
2019-04-16T18:29:52.451Z,12.70
2019-04-16T18:33:14.653Z,12.40
2019-04-16T18:36:32.937Z,12.14
2019-04-16T18:39:55.946Z,11.95
2019-04-16T18:43:23.597Z,11.85
2019-04-16T18:46:40.571Z,11.78
2019-04-16T18:49:49.324Z,11.72
2019-04-16T18:52:59.974Z,11.69
2019-04-16T18:56:07.702Z,11.69
2019-04-16T18:59:15.416Z,11.66
2019-04-16T19:02:26.142Z,11.60
2019-04-16T19:05:34.605Z,11.57
2019-04-16T19:08:46.205Z,11.49
2019-04-16T19:11:53.690Z,11.48
2019-04-16T19:15:00.978Z,11.40
2019-04-16T19:18:19.271Z,11.33
2019-04-16T19:21:19.177Z,11.31
2019-04-16T19:24:26.707Z,11.31
2019-04-16T19:27:33.930Z,11.30
2019-04-16T19:30:41.746Z,11.17
2019-04-16T19:33:49.119Z,11.09
2019-04-16T19:36:59.575Z,11.04
2019-04-16T19:40:06.619Z,10.92
2019-04-16T19:43:14.997Z,10.82
2019-04-16T19:46:23.145Z,10.99
2019-04-16T19:49:32.780Z,11.16
2019-04-16T19:52:40.343Z,10.82
2019-04-16T19:55:47.857Z,10.63
2019-04-16T19:58:55.244Z,10.46
2019-04-16T20:02:02.981Z,10.13
2019-04-16T20:05:11.363Z,10.00
2019-04-16T20:08:19.265Z,9.96
2019-04-16T20:11:26.880Z,10.15
2019-04-16T20:14:36.256Z,10.21
2019-04-16T20:17:46.786Z,10.47
2019-04-16T20:20:54.568Z,10.85
2019-04-16T20:24:02.013Z,10.94
2019-04-16T20:27:10.171Z,10.82
2019-04-16T20:30:22.994Z,10.68
2019-04-16T20:33:27.339Z,10.68
2019-04-16T20:36:35.322Z,10.72
2019-04-16T20:39:43.206Z,10.62
2019-04-16T20:42:50.595Z,10.43
2019-04-16T20:45:58.134Z,10.43
2019-04-16T20:49:09.028Z,10.47
2019-04-16T20:52:14.882Z,10.35
2019-04-16T20:55:25.103Z,10.18
2019-04-16T20:58:33.832Z,10.14
2019-04-16T21:01:41.007Z,10.05
2019-04-16T21:04:48.963Z,9.95
2019-04-16T21:07:56.296Z,9.86
2019-04-16T21:11:07.872Z,10.08
2019-04-16T21:14:13.131Z,9.70
2019-04-16T21:17:21.177Z,9.61
2019-04-16T21:20:28.479Z,9.28
2019-04-16T21:23:35.883Z,9.12
2019-04-16T21:26:43.242Z,9.22
2019-04-16T21:29:50.818Z,9.03
2019-04-16T21:33:26.845Z,8.99
2019-04-16T21:36:53.820Z,8.62
2019-04-16T21:40:03.318Z,8.29
2019-04-16T21:43:11.057Z,8.16
2019-04-16T21:46:20.513Z,8.19
2019-04-16T21:49:38.287Z,8.12
2019-04-16T21:52:37.295Z,8.09
2019-04-16T21:55:44.902Z,8.09
2019-04-16T21:58:52.308Z,8.00
2019-04-16T22:02:00.249Z,7.77
2019-04-16T22:05:09.854Z,7.68
2019-04-16T22:08:17.442Z,7.63
2019-04-16T22:11:25.039Z,7.48
2019-04-16T22:14:32.313Z,7.39
2019-04-16T22:17:39.705Z,7.18
2019-04-16T22:20:47.108Z,7.18
2019-04-16T22:23:54.569Z,7.26
2019-04-16T22:27:06.333Z,7.24
2019-04-16T22:30:12.070Z,7.30
2019-04-16T22:33:23.170Z,7.21
2019-04-16T22:36:30.871Z,7.14
2019-04-16T22:39:50.769Z,6.99
2019-04-16T22:43:11.046Z,6.90
2019-04-16T22:46:22.364Z,6.90
2019-04-16T22:49:30.357Z,6.85
2019-04-16T22:52:38.450Z,6.83
2019-04-16T22:55:56.453Z,6.97
2019-04-16T22:59:01.915Z,6.73
2019-04-16T23:02:17.802Z,6.70
2019-04-16T23:05:27.753Z,6.80
2019-04-16T23:08:34.769Z,6.69
2019-04-16T23:11:42.302Z,6.67
2019-04-16T23:14:50.147Z,6.34
2019-04-16T23:17:58.052Z,6.36
2019-04-16T23:21:10.671Z,6.21
2019-04-16T23:24:15.413Z,6.00
2019-04-16T23:27:23.185Z,6.11
2019-04-16T23:30:30.467Z,6.11
2019-04-16T23:33:37.846Z,6.17
2019-04-16T23:36:48.722Z,6.09
2019-04-16T23:39:54.763Z,6.04
2019-04-16T23:43:39.862Z,6.05
2019-04-16T23:47:17.516Z,5.92
2019-04-16T23:50:53.984Z,5.91
2019-04-16T23:54:27.007Z,5.68
2019-04-16T23:57:56.695Z,5.71
